Time;durP1;ratioP1;P1;durP2;ratioP2;P2;SDS_P1;SDS_P2;PMS_P1;PMS_P2;Temp;Humidity;BMP_temperature;BMP_pressure;BME280_temperature;BME280_humidity;BME280_pressure;Samples;Min_cycle;Max_cycle;Signal;HPM_P1;HPM_P2
2022/09/14 00:01:09;;;;;;;3.53;2.80;;;;;;;17.66;59.73;97703.28;5009473;28;20045;-71
2022/09/14 00:03:35;;;;;;;2.97;2.58;;;;;;;17.66;59.89;97700.50;5011168;28;20026;-71
2022/09/14 00:06:09;;;;;;;4.13;2.85;;;;;;;17.65;59.87;97703.66;5011106;28;20018;-71
2022/09/14 00:08:36;;;;;;;3.70;2.50;;;;;;;17.65;59.57;97701.69;5009530;28;20503;-71
2022/09/14 00:11:07;;;;;;;4.53;2.65;;;;;;;17.64;59.81;97699.28;5010047;28;20080;-71
2022/09/14 00:13:34;;;;;;;4.15;2.65;;;;;;;17.66;59.52;97708.84;5010004;28;20021;-71
2022/09/14 00:16:05;;;;;;;3.95;2.60;;;;;;;17.63;59.62;97698.47;5009670;28;20061;-70
2022/09/14 00:18:32;;;;;;;3.33;2.70;;;;;;;17.65;59.80;97692.56;5011766;28;20053;-70
2022/09/14 00:21:05;;;;;;;2.90;2.60;;;;;;;17.65;59.51;97693.34;5011182;28;20026;-71
2022/09/14 00:23:30;;;;;;;3.55;2.47;;;;;;;17.67;59.78;97693.00;5010684;28;20067;-70
2022/09/14 00:26:05;;;;;;;4.50;2.53;;;;;;;17.67;59.81;97690.25;5014139;28;20429;-70
2022/09/14 00:28:39;;;;;;;3.03;2.35;;;;;;;17.68;59.79;97689.06;5012346;28;20022;-70
2022/09/14 00:31:06;;;;;;;3.90;2.60;;;;;;;17.67;59.79;97688.25;5012785;28;20069;-70
2022/09/14 00:33:33;;;;;;;3.72;2.53;;;;;;;17.68;59.53;97684.31;5010918;28;20018;-70
2022/09/14 00:36:08;;;;;;;4.15;2.67;;;;;;;17.68;59.75;97691.84;5013297;28;20030;-70
2022/09/14 00:38:34;;;;;;;3.65;2.83;;;;;;;17.70;59.53;97692.28;5024206;28;20511;-71
2022/09/14 00:41:01;;;;;;;5.22;2.70;;;;;;;17.70;59.72;97686.75;5030224;28;20080;-71
2022/09/14 00:43:26;;;;;;;3.08;2.40;;;;;;;17.69;59.29;97679.59;5008047;28;20710;-70
2022/09/14 00:45:52;;;;;;;4.53;2.53;;;;;;;17.68;59.43;97683.53;5022047;28;20027;-71
2022/09/14 00:48:19;;;;;;;4.93;2.60;;;;;;;17.67;59.49;97677.16;5022918;28;20034;-71
2022/09/14 00:50:44;;;;;;;2.50;2.30;;;;;;;17.65;59.68;97676.72;5021764;28;20529;-71
2022/09/14 00:53:10;;;;;;;2.83;2.47;;;;;;;17.64;59.43;97672.34;5018701;28;20048;-71
2022/09/14 00:55:35;;;;;;;2.88;2.35;;;;;;;17.61;59.48;97673.06;5011506;28;20076;-71
2022/09/14 00:58:01;;;;;;;4.70;3.20;;;;;;;17.59;59.44;97675.41;5017250;28;20030;-71
2022/09/14 01:00:29;;;;;;;3.90;2.75;;;;;;;17.58;59.63;97668.25;5025994;28;20022;-71
2022/09/14 01:02:54;;;;;;;3.95;2.80;;;;;;;17.55;59.40;97668.97;5010712;28;20030;-71
2022/09/14 01:05:34;;;;;;;3.78;2.42;;;;;;;17.51;59.26;97666.13;5008151;28;20037;-71
2022/09/14 01:08:28;;;;;;;4.63;2.75;;;;;;;17.50;59.37;97664.53;5009935;28;20683;-71
2022/09/14 01:11:20;;;;;;;3.40;2.60;;;;;;;17.46;59.62;97671.94;5015712;28;20124;-70
2022/09/14 01:14:13;;;;;;;3.03;2.47;;;;;;;17.43;59.51;97667.13;5010334;28;20033;-70
2022/09/14 01:17:06;;;;;;;3.42;2.33;;;;;;;17.40;59.67;97656.75;5015543;28;20042;-70
2022/09/14 01:20:01;;;;;;;4.07;2.55;;;;;;;17.37;59.47;97654.72;5010668;28;20033;-71
2022/09/14 01:22:35;;;;;;;2.83;2.20;;;;;;;17.34;59.55;97659.00;5010145;28;20490;-71
2022/09/14 01:25:22;;;;;;;3.28;2.33;;;;;;;17.31;59.64;97653.41;5011104;28;20030;-71
2022/09/14 01:27:50;;;;;;;3.20;2.40;;;;;;;17.29;59.68;97650.19;5010462;28;20022;-71
2022/09/14 01:30:22;;;;;;;3.13;2.83;;;;;;;17.26;59.98;97646.97;5010145;28;20077;-71
2022/09/14 01:32:52;;;;;;;3.00;2.50;;;;;;;17.24;59.62;97648.47;5010082;28;20030;-71
2022/09/14 01:35:39;;;;;;;;;;;;;;;17.21;59.74;97638.94;5011247;28;19913;-70
2022/09/14 01:38:10;;;;;;;3.00;2.30;;;;;;;17.18;59.79;97642.44;5010769;28;20004;-71
2022/09/14 01:40:44;;;;;;;3.95;2.47;;;;;;;17.14;59.78;97636.00;5009921;28;20030;-70
2022/09/14 01:43:35;;;;;;;4.30;2.65;;;;;;;17.10;60.05;97635.09;5017941;28;20045;-70
2022/09/14 01:46:12;;;;;;;2.58;2.30;;;;;;;17.08;59.83;97634.66;5015872;28;20034;-70
2022/09/14 01:48:49;;;;;;;3.20;2.50;;;;;;;17.04;60.19;97640.13;5020414;28;20412;-70
2022/09/14 01:51:21;;;;;;;2.78;2.45;;;;;;;17.02;59.97;97636.09;5023651;28;20116;-71
2022/09/14 01:53:53;;;;;;;4.38;2.83;;;;;;;16.99;59.95;97628.50;5009151;28;20113;-71
2022/09/14 01:56:32;;;;;;;3.42;2.58;;;;;;;16.94;60.32;97643.41;5010583;28;20034;-70
2022/09/14 01:59:09;;;;;;;4.03;2.70;;;;;;;16.91;60.00;97636.59;5010881;28;20033;-71
2022/09/14 02:01:43;;;;;;;2.65;2.38;;;;;;;16.90;60.06;97639.75;5013925;28;20116;-71
2022/09/14 02:04:12;;;;;;;4.88;2.33;;;;;;;16.87;60.16;97632.97;5009441;28;20053;-71
2022/09/14 02:06:46;;;;;;;3.42;2.40;;;;;;;16.86;60.39;97638.84;5012721;28;20092;-71
2022/09/14 02:09:17;;;;;;;3.17;2.45;;;;;;;16.84;60.45;97630.09;5021258;28;20023;-71
2022/09/14 02:11:43;;;;;;;3.72;2.67;;;;;;;16.84;60.41;97632.88;5013457;28;20026;-70
2022/09/14 02:14:08;;;;;;;4.43;2.47;;;;;;;16.80;60.61;97630.81;5010422;28;20385;-71
2022/09/14 02:16:35;;;;;;;3.53;2.70;;;;;;;16.78;60.64;97632.34;5011337;28;20030;-70
2022/09/14 02:19:01;;;;;;;3.42;2.28;;;;;;;16.74;60.33;97625.91;5014212;28;20026;-71
2022/09/14 02:21:29;;;;;;;3.05;2.40;;;;;;;16.71;60.83;97612.78;5013523;28;20158;-70
2022/09/14 02:23:56;;;;;;;2.97;2.20;;;;;;;16.69;60.65;97609.56;5011124;28;20037;-71
2022/09/14 02:26:22;;;;;;;5.20;2.80;;;;;;;16.65;61.01;97609.50;5017592;28;20393;-70
2022/09/14 02:28:48;;;;;;;3.53;2.50;;;;;;;16.65;60.89;97612.25;5013114;28;20033;-70
2022/09/14 02:31:56;;;;;;;4.22;2.90;;;;;;;16.62;61.11;97599.91;5027022;28;20025;-70
2022/09/14 02:34:27;;;;;;;4.75;2.45;;;;;;;16.62;60.89;97593.59;4998625;28;20551;-70
2022/09/14 02:37:11;;;;;;;2.95;2.60;;;;;;;16.59;61.02;97600.63;5012885;28;20026;-71
2022/09/14 02:39:53;;;;;;;3.20;2.70;;;;;;;16.58;60.95;97599.03;5028299;28;20075;-71
2022/09/14 02:42:48;;;;;;;3.97;2.90;;;;;;;16.56;60.96;97598.56;5019936;28;20540;-71
2022/09/14 02:45:35;;;;;;;4.57;3.20;;;;;;;16.53;61.14;97599.28;5025563;28;20026;-71
2022/09/14 02:48:19;;;;;;;3.30;2.50;;;;;;;16.51;61.29;97594.13;5013632;28;20061;-71
2022/09/14 02:50:58;;;;;;;3.63;2.75;;;;;;;16.49;61.41;97590.91;5024579;28;20076;-71
2022/09/14 02:53:42;;;;;;;3.28;2.70;;;;;;;16.48;61.31;97594.84;5011685;28;20048;-71
2022/09/14 02:56:10;;;;;;;3.67;2.80;;;;;;;16.49;61.50;97595.66;5012696;28;20040;-71
2022/09/14 02:58:38;;;;;;;2.95;2.65;;;;;;;16.46;61.45;97602.69;5013628;28;20084;-70
2022/09/14 03:01:05;;;;;;;4.88;2.85;;;;;;;16.43;61.77;97597.88;5015693;28;20030;-71
2022/09/14 03:03:31;;;;;;;6.07;2.78;;;;;;;16.37;61.76;97597.34;5011774;28;20053;-71
2022/09/14 03:05:57;;;;;;;3.33;2.58;;;;;;;16.37;61.87;97594.56;5021280;28;20057;-71
2022/09/14 03:08:25;;;;;;;3.80;2.70;;;;;;;16.37;61.98;97596.53;5019491;28;20510;-70
2022/09/14 03:10:50;;;;;;;4.70;3.10;;;;;;;16.34;62.01;97592.50;5014367;28;20026;-72
2022/09/14 03:13:16;;;;;;;4.43;2.80;;;;;;;16.32;61.91;97594.81;5009952;28;20120;-71
2022/09/14 03:15:41;;;;;;;4.18;2.70;;;;;;;16.32;61.82;97582.94;5010830;28;20038;-71
2022/09/14 03:18:08;;;;;;;6.65;2.92;;;;;;;16.31;61.88;97573.84;5011612;28;20077;-70
2022/09/14 03:20:33;;;;;;;5.97;2.58;;;;;;;16.31;62.25;97578.56;5012482;28;20104;-71
2022/09/14 03:23:00;;;;;;;4.38;3.05;;;;;;;16.29;62.04;97590.00;5012003;28;20117;-71
2022/09/14 03:25:26;;;;;;;4.38;3.13;;;;;;;16.28;62.06;97593.13;5026194;28;20084;-71
2022/09/14 03:27:55;;;;;;;4.90;3.20;;;;;;;16.27;61.94;97597.06;5013137;28;20026;-70
2022/09/14 03:30:20;;;;;;;4.68;3.22;;;;;;;16.25;62.13;97594.63;5011041;28;20120;-71
2022/09/14 03:32:47;;;;;;;4.53;3.05;;;;;;;16.26;62.30;97587.16;5011702;28;20699;-70
2022/09/14 03:35:13;;;;;;;4.47;3.10;;;;;;;16.23;62.69;97591.41;5012437;28;20022;-70
2022/09/14 03:37:40;;;;;;;4.47;3.08;;;;;;;16.22;62.81;97590.63;5014918;28;20034;-71
2022/09/14 03:40:08;;;;;;;5.95;3.00;;;;;;;16.22;62.49;97595.34;5012479;28;20038;-70
2022/09/14 03:42:34;;;;;;;5.20;3.05;;;;;;;16.22;62.61;97595.34;5011405;28;20072;-70
2022/09/14 03:44:59;;;;;;;4.47;3.38;;;;;;;16.22;62.46;97595.34;5011731;28;20053;-70
2022/09/14 03:47:25;;;;;;;5.03;3.13;;;;;;;16.21;63.07;97599.28;5025572;28;20478;-70
2022/09/14 03:49:51;;;;;;;5.25;3.10;;;;;;;16.19;62.54;97604.34;5011025;28;20455;-70
2022/09/14 03:52:17;;;;;;;3.22;2.83;;;;;;;16.18;62.65;97597.22;5031777;28;20462;-69
2022/09/14 03:54:42;;;;;;;3.78;3.03;;;;;;;16.16;62.99;97596.75;5018940;28;20046;-70
2022/09/14 03:57:08;;;;;;;4.85;2.97;;;;;;;16.15;63.35;97600.69;5023260;28;20029;-70
2022/09/14 03:59:34;;;;;;;5.00;2.90;;;;;;;16.13;63.20;97598.28;5028527;28;20084;-70
2022/09/14 04:02:00;;;;;;;4.70;3.00;;;;;;;16.12;63.32;97590.31;5010654;28;20069;-70
2022/09/14 04:04:25;;;;;;;5.53;3.00;;;;;;;16.12;63.08;97591.16;5013260;28;20042;-70
2022/09/14 04:06:51;;;;;;;7.03;3.30;;;;;;;16.12;63.08;97591.16;5011840;28;20082;-70
2022/09/14 04:09:18;;;;;;;3.95;2.83;;;;;;;16.11;63.17;97592.31;5011070;28;20053;-70
2022/09/14 04:11:44;;;;;;;4.55;3.03;;;;;;;16.12;63.58;97587.56;5011402;28;20033;-69
2022/09/14 04:14:11;;;;;;;3.33;2.88;;;;;;;16.12;63.24;97587.56;5010673;28;20520;-70
2022/09/14 04:16:38;;;;;;;6.68;3.17;;;;;;;16.12;63.42;97596.69;5011958;28;20030;-70
2022/09/14 04:19:03;;;;;;;3.90;3.15;;;;;;;16.11;63.50;97589.53;5018439;28;20025;-69
2022/09/14 04:21:29;;;;;;;4.57;3.03;;;;;;;16.11;63.50;97597.03;5011546;28;20079;-70
2022/09/14 04:23:56;;;;;;;5.57;3.25;;;;;;;16.11;63.55;97585.94;5010590;28;20099;-70
2022/09/14 04:26:24;;;;;;;4.80;3.10;;;;;;;16.08;63.51;97590.25;5010949;28;20438;-70
2022/09/14 04:28:49;;;;;;;10.45;3.83;;;;;;;16.07;64.11;97585.88;5011295;28;20031;-70
2022/09/14 04:31:15;;;;;;;4.03;3.25;;;;;;;16.05;63.32;97590.94;5008901;28;20061;-70
2022/09/14 04:33:41;;;;;;;3.75;2.97;;;;;;;16.03;63.69;97582.19;5031301;28;20156;-70
2022/09/14 04:36:15;;;;;;;4.53;3.33;;;;;;;15.99;63.65;97573.00;5014571;28;20394;-70
2022/09/14 04:38:41;;;;;;;6.78;3.78;;;;;;;15.98;63.65;97574.16;5012552;28;20026;-70
2022/09/14 04:41:10;;;;;;;4.07;3.05;;;;;;;15.96;63.87;97576.47;5017695;28;20153;-70
2022/09/14 04:43:36;;;;;;;4.45;3.40;;;;;;;15.96;64.32;97582.00;5023789;28;20932;-70
2022/09/14 04:46:06;;;;;;;6.15;3.58;;;;;;;15.93;63.92;97578.78;5009773;28;20033;-70
2022/09/14 04:48:33;;;;;;;6.43;3.47;;;;;;;15.93;64.06;97572.47;5025882;28;20022;-70
2022/09/14 04:51:25;;;;;;;4.75;3.60;;;;;;;15.92;64.41;97570.84;5011756;28;20478;-70
2022/09/14 04:53:53;;;;;;;6.65;3.60;;;;;;;15.93;64.70;97580.75;5006326;28;20046;-70
2022/09/14 04:56:21;;;;;;;5.82;3.75;;;;;;;15.93;64.58;97581.56;5010825;28;20057;-70
2022/09/14 04:58:48;;;;;;;6.55;3.42;;;;;;;15.95;64.59;97577.63;5015518;28;20021;-70
2022/09/14 05:01:17;;;;;;;7.82;4.15;;;;;;;15.97;64.72;97578.09;5013521;28;20033;-70
2022/09/14 05:03:42;;;;;;;7.25;3.67;;;;;;;15.97;64.55;97576.13;5010993;28;20390;-71
2022/09/14 05:06:16;;;;;;;4.70;4.00;;;;;;;15.97;64.41;97580.84;5013975;28;20037;-70
2022/09/14 05:08:43;;;;;;;5.80;3.85;;;;;;;15.97;64.42;97587.19;5009859;28;20037;-70
2022/09/14 05:11:12;;;;;;;5.38;3.92;;;;;;;16.00;64.72;97582.91;5016332;28;20026;-70
2022/09/14 05:13:37;;;;;;;6.72;3.83;;;;;;;16.01;64.49;97581.75;5010015;28;21952;-70
2022/09/14 05:16:25;;;;;;;6.70;4.22;;;;;;;16.01;64.55;97590.88;5009998;28;20030;-70
2022/09/14 05:18:53;;;;;;;5.50;4.00;;;;;;;16.03;64.69;97587.72;5012970;28;20079;-70
2022/09/14 05:21:20;;;;;;;5.07;3.85;;;;;;;16.04;64.75;97590.16;5010368;28;20442;-70
2022/09/14 05:23:46;;;;;;;6.03;4.30;;;;;;;16.06;64.76;97589.78;5010582;28;20025;-70
2022/09/14 05:26:12;;;;;;;5.32;3.90;;;;;;;16.10;64.72;97585.16;5014194;28;20038;-70
2022/09/14 05:28:38;;;;;;;8.52;4.15;;;;;;;16.13;65.22;97589.16;5022796;28;20034;-71
2022/09/14 05:31:09;;;;;;;5.00;3.47;;;;;;;16.18;65.26;97600.78;5021715;28;20026;-70
2022/09/14 05:33:35;;;;;;;5.95;3.90;;;;;;;16.22;65.16;97598.13;5011374;28;20128;-70
2022/09/14 05:36:05;;;;;;;7.43;3.90;;;;;;;16.29;65.38;97605.81;5011622;28;20026;-70
2022/09/14 05:38:32;;;;;;;7.13;3.90;;;;;;;16.34;65.22;97605.53;5010551;28;20042;-70
2022/09/14 05:40:58;;;;;;;5.00;3.90;;;;;;;16.37;65.35;97600.09;5014284;28;20030;-70
2022/09/14 05:43:24;;;;;;;7.40;4.30;;;;;;;16.40;65.39;97601.34;5009952;28;20420;-71
2022/09/14 05:45:49;;;;;;;5.35;4.07;;;;;;;16.46;65.11;97605.47;5010895;28;20029;-70
2022/09/14 05:48:15;;;;;;;6.03;3.60;;;;;;;16.50;65.34;97600.03;5028545;28;20494;-70
2022/09/14 05:50:41;;;;;;;5.82;3.95;;;;;;;16.55;65.48;97594.19;5013107;28;20026;-70
2022/09/14 05:53:06;;;;;;;6.00;4.00;;;;;;;16.62;65.23;97593.59;5014235;28;20045;-70
2022/09/14 05:55:32;;;;;;;7.07;3.83;;;;;;;16.68;65.36;97583.88;5020775;28;20029;-70
2022/09/14 05:57:57;;;;;;;5.30;3.67;;;;;;;16.74;65.35;97587.16;5014087;28;20030;-70
2022/09/14 06:00:23;;;;;;;7.72;3.92;;;;;;;16.80;65.39;97594.81;5013984;28;20030;-70
2022/09/14 06:02:49;;;;;;;7.25;4.22;;;;;;;16.88;65.17;97592.22;5021920;28;20072;-70
2022/09/14 06:05:15;;;;;;;7.22;3.95;;;;;;;16.95;65.39;97603.47;5010510;28;20063;-70
2022/09/14 06:07:41;;;;;;;5.70;3.88;;;;;;;16.99;65.26;97586.94;5014890;28;20080;-69
2022/09/14 06:10:07;;;;;;;5.07;3.83;;;;;;;17.03;65.40;97585.06;5029252;28;20033;-69
2022/09/14 06:12:33;;;;;;;9.90;3.95;;;;;;;17.09;65.46;97592.75;5025177;28;20503;-69
2022/09/14 06:14:59;;;;;;;5.95;3.97;;;;;;;17.15;65.22;97587.72;5033162;28;20112;-69
2022/09/14 06:17:24;;;;;;;6.63;4.05;;;;;;;17.19;64.94;97591.38;5012353;28;20041;-70
2022/09/14 06:19:50;;;;;;;6.35;4.00;;;;;;;17.25;65.08;97600.22;5012331;28;20036;-70
2022/09/14 06:22:15;;;;;;;5.28;3.67;;;;;;;17.32;65.12;97607.91;5020542;28;20030;-70
2022/09/14 06:24:40;;;;;;;8.50;3.75;;;;;;;17.38;65.10;97607.25;5032640;28;20553;-70
2022/09/14 06:27:09;;;;;;;7.75;3.65;;;;;;;17.44;64.86;97598.66;5015546;28;20076;-71
2022/09/14 06:29:35;;;;;;;5.75;3.60;;;;;;;17.51;65.13;97607.91;5010393;28;20022;-71
2022/09/14 06:32:00;;;;;;;7.20;3.85;;;;;;;17.57;65.06;97602.88;5011250;28;20044;-71
2022/09/14 06:34:26;;;;;;;5.93;3.40;;;;;;;17.62;64.75;97596.25;5021927;28;20083;-71
2022/09/14 06:36:51;;;;;;;8.57;3.90;;;;;;;17.67;65.04;97593.97;5031065;28;20522;-71
2022/09/14 06:39:16;;;;;;;5.78;3.40;;;;;;;17.73;64.91;97594.47;5019079;28;20046;-71
2022/09/14 06:41:42;;;;;;;4.82;3.47;;;;;;;17.77;64.66;97602.88;5011482;28;20095;-71
2022/09/14 06:44:08;;;;;;;6.28;3.47;;;;;;;17.83;64.75;97601.44;5029299;28;20025;-72
2022/09/14 06:46:34;;;;;;;7.78;3.80;;;;;;;17.90;64.88;97601.56;5026208;28;20063;-71
2022/09/14 06:49:06;;;;;;;6.43;3.75;;;;;;;17.98;64.78;97605.28;5029945;28;20075;-71
2022/09/14 06:51:37;;;;;;;5.65;3.85;;;;;;;18.04;64.91;97606.63;5028342;28;20025;-71
2022/09/14 06:54:04;;;;;;;6.57;3.45;;;;;;;18.10;65.07;97594.06;5027268;28;20067;-71
2022/09/14 06:56:35;;;;;;;7.40;3.50;;;;;;;18.18;64.81;97596.94;5015064;28;20033;-71
2022/09/14 06:59:04;;;;;;;5.25;3.13;;;;;;;18.23;64.74;97602.19;5009081;28;20038;-70
2022/09/14 07:01:30;;;;;;;4.95;3.60;;;;;;;18.28;64.70;97599.13;5022502;28;20029;-71
2022/09/14 07:03:57;;;;;;;4.32;3.35;;;;;;;18.31;64.52;97590.06;5030004;28;20029;-71
2022/09/14 07:06:25;;;;;;;5.00;3.27;;;;;;;18.34;64.64;97592.09;4975201;28;1219231;-72
2022/09/14 07:08:51;;;;;;;5.47;3.30;;;;;;;18.39;64.56;97596.53;5027389;28;20037;-71
2022/09/14 07:11:20;;;;;;;4.28;2.90;;;;;;;18.42;64.53;97596.59;5011529;28;20034;-71
2022/09/14 07:13:46;;;;;;;6.50;2.88;;;;;;;18.48;64.72;97588.75;5011088;28;20049;-71
2022/09/14 07:16:13;;;;;;;5.35;2.97;;;;;;;18.52;64.46;97597.97;5011981;28;20058;-71
2022/09/14 07:18:39;;;;;;;5.13;3.17;;;;;;;18.55;64.47;97597.22;5011007;28;20049;-72
2022/09/14 07:21:05;;;;;;;6.25;3.00;;;;;;;18.60;64.45;97607.22;5011242;28;20022;-71
2022/09/14 07:23:32;;;;;;;4.50;3.30;;;;;;;18.64;64.32;97605.28;5011671;28;20042;-70
2022/09/14 07:26:00;;;;;;;6.22;3.72;;;;;;;18.67;64.23;97606.53;5012323;28;20081;-70
2022/09/14 07:28:26;;;;;;;7.85;3.35;;;;;;;18.71;64.33;97610.19;5022383;28;20060;-70
2022/09/14 07:30:51;;;;;;;3.92;3.22;;;;;;;18.75;64.16;97605.47;5014771;28;20065;-72
2022/09/14 07:33:16;;;;;;;6.60;3.72;;;;;;;18.77;64.23;97610.66;5020801;28;20106;-72
2022/09/14 07:35:42;;;;;;;6.60;3.30;;;;;;;18.78;63.93;97610.28;5010436;28;20033;-70
2022/09/14 07:38:07;;;;;;;5.80;3.38;;;;;;;18.81;64.01;97611.53;5015133;28;20045;-70
2022/09/14 07:40:33;;;;;;;5.43;3.45;;;;;;;18.85;63.92;97598.50;5031625;28;20030;-71
2022/09/14 07:43:00;;;;;;;5.72;3.75;;;;;;;18.87;63.81;97601.72;5013683;28;20029;-71
2022/09/14 07:45:26;;;;;;;4.95;3.50;;;;;;;18.87;63.47;97598.94;5012938;28;20116;-71
2022/09/14 07:47:51;;;;;;;6.43;3.50;;;;;;;18.88;63.66;97603.31;5007421;28;20445;-70
2022/09/14 07:50:17;;;;;;;3.65;3.22;;;;;;;18.93;63.13;97602.19;5011298;28;20037;-70
2022/09/14 07:52:42;;;;;;;6.68;3.30;;;;;;;18.95;63.18;97603.41;5008315;28;20445;-70
2022/09/14 07:55:10;;;;;;;4.75;3.05;;;;;;;18.96;63.31;97605.03;5022186;28;20068;-71
2022/09/14 07:57:36;;;;;;;4.53;3.35;;;;;;;19.01;63.34;97598.38;5031066;28;20025;-71
2022/09/14 08:00:02;;;;;;;4.93;3.58;;;;;;;19.09;63.48;97607.59;5027054;28;20542;-70
2022/09/14 08:02:28;;;;;;;3.80;3.30;;;;;;;19.14;63.37;97598.97;5008443;28;20026;-70
2022/09/14 08:04:53;;;;;;;8.50;3.58;;;;;;;19.16;63.12;97604.94;5007717;28;20026;-70
2022/09/14 08:07:19;;;;;;;6.78;3.42;;;;;;;19.21;63.09;97609.38;5006752;28;20405;-70
2022/09/14 08:09:45;;;;;;;4.78;3.90;;;;;;;19.23;62.95;97610.63;5010326;28;20076;-71
2022/09/14 08:12:11;;;;;;;5.80;3.92;;;;;;;19.26;62.77;97600.72;5009177;28;20077;-70
2022/09/14 08:14:36;;;;;;;4.78;3.78;;;;;;;19.27;62.65;97608.69;5010883;28;20099;-71
2022/09/14 08:17:02;;;;;;;5.18;3.50;;;;;;;19.30;62.76;97605.16;5011338;28;20061;-71
2022/09/14 08:19:27;;;;;;;6.88;3.97;;;;;;;19.36;62.79;97605.63;5028910;28;20033;-70
2022/09/14 08:21:53;;;;;;;5.45;3.63;;;;;;;19.38;62.70;97611.63;5015596;28;20088;-70
2022/09/14 08:24:20;;;;;;;5.78;3.72;;;;;;;19.38;62.56;97611.63;5010360;28;20030;-71
2022/09/14 08:26:46;;;;;;;5.15;3.47;;;;;;;19.38;62.46;97613.56;5009911;28;20112;-71
2022/09/14 08:29:13;;;;;;;5.78;3.25;;;;;;;19.42;62.52;97606.91;5027220;28;20030;-71
2022/09/14 08:31:39;;;;;;;5.82;3.47;;;;;;;19.46;62.45;97596.63;5016157;28;20030;-70
2022/09/14 08:34:06;;;;;;;6.30;3.42;;;;;;;19.53;62.34;97600.69;5009710;28;20065;-70
2022/09/14 08:36:35;;;;;;;8.40;3.88;;;;;;;19.56;62.22;97597.94;5013408;28;20041;-70
2022/09/14 08:39:01;;;;;;;6.13;3.40;;;;;;;19.59;62.24;97608.31;5029714;28;20095;-71
2022/09/14 08:41:49;;;;;;;5.75;3.53;;;;;;;19.61;62.29;97605.16;5008962;28;20029;-70
2022/09/14 08:44:25;;;;;;;6.80;3.70;;;;;;;19.64;62.03;97604.38;5012797;28;20061;-71
2022/09/14 08:47:01;;;;;;;5.95;3.97;;;;;;;19.61;62.11;97611.53;5020006;28;20292;-70
2022/09/14 08:50:11;;;;;;;7.22;3.67;;;;;;;19.61;62.08;97610.72;5012229;28;20022;-70
2022/09/14 08:52:47;;;;;;;4.13;3.60;;;;;;;19.61;62.02;97613.50;5021636;28;20025;-70
2022/09/14 08:55:28;;;;;;;4.35;3.40;;;;;;;19.53;61.71;97609.81;5008312;28;20034;-72
2022/09/14 08:57:57;;;;;;;3.92;3.28;;;;;;;19.51;61.78;97608.59;5010525;28;20121;-71
2022/09/14 09:00:29;;;;;;;6.97;3.77;;;;;;;19.47;61.54;97612.13;5008738;28;20030;-70
2022/09/14 09:03:09;;;;;;;5.45;3.40;;;;;;;19.41;61.64;97619.19;5016366;28;20339;-71
2022/09/14 09:06:05;;;;;;;5.15;3.80;;;;;;;19.31;61.66;97615.09;5014712;28;20389;-72
2022/09/14 09:08:53;;;;;;;5.47;3.80;;;;;;;19.27;61.88;97613.44;5013814;28;20053;-71
2022/09/14 09:11:21;;;;;;;3.83;3.35;;;;;;;19.23;61.78;97613.38;5026745;28;20021;-71
2022/09/14 09:13:49;;;;;;;5.07;3.60;;;;;;;19.18;61.82;97606.16;5006593;28;20061;-71
2022/09/14 09:16:19;;;;;;;6.50;3.67;;;;;;;19.16;62.13;97602.16;5006494;28;20088;-72
2022/09/14 09:18:49;;;;;;;4.72;3.78;;;;;;;19.18;62.25;97603.38;5007174;28;20026;-71
2022/09/14 09:21:21;;;;;;;5.97;3.65;;;;;;;19.22;62.33;97606.22;5017143;28;20026;-70
2022/09/14 09:23:46;;;;;;;5.00;3.95;;;;;;;19.23;62.32;97605.06;5028622;28;20076;-72
2022/09/14 09:26:24;;;;;;;6.28;3.83;;;;;;;19.22;62.32;97606.22;5010411;28;20057;-72
2022/09/14 09:28:55;;;;;;;5.78;4.00;;;;;;;19.20;62.45;97597.47;5013321;28;20144;-72
2022/09/14 09:31:34;;;;;;;5.88;4.13;;;;;;;19.20;62.30;97597.47;5022816;28;20478;-72
2022/09/14 09:34:00;;;;;;;5.80;4.10;;;;;;;19.19;62.72;97599.44;5008291;28;20069;-72
2022/09/14 09:36:39;;;;;;;4.80;3.72;;;;;;;19.22;62.58;97597.88;5006754;28;20057;-71
2022/09/14 09:39:05;;;;;;;8.18;3.80;;;;;;;19.26;62.82;97595.16;5011628;28;20359;-71
2022/09/14 09:41:45;;;;;;;6.15;3.90;;;;;;;19.26;62.84;97592.38;5010160;28;20026;-71
2022/09/14 09:44:10;;;;;;;;;;;;;;;19.28;62.94;97598.34;5016442;28;20406;-72
2022/09/14 09:46:47;;;;;;;5.97;3.58;;;;;;;19.28;62.85;97587.22;5011984;28;19928;-70
2022/09/14 09:49:37;;;;;;;5.15;3.83;;;;;;;19.25;63.07;97594.34;5014702;28;20049;-71
2022/09/14 09:52:12;;;;;;;4.60;3.78;;;;;;;19.27;63.15;97592.00;5000134;28;20049;-71
2022/09/14 09:54:41;;;;;;;5.00;3.63;;;;;;;19.25;63.21;97587.97;5008317;28;20038;-71
2022/09/14 09:57:22;;;;;;;5.85;3.80;;;;;;;19.24;63.09;97591.94;5010287;28;20034;-70
2022/09/14 09:59:47;;;;;;;4.82;3.90;;;;;;;19.22;63.30;97589.56;5028068;28;20033;-71
2022/09/14 10:02:30;;;;;;;4.85;3.85;;;;;;;19.23;63.49;97599.50;5015449;28;20033;-71
2022/09/14 10:04:59;;;;;;;4.50;3.80;;;;;;;19.21;63.32;97593.50;5011069;28;20120;-69
2022/09/14 10:07:25;;;;;;;5.75;3.80;;;;;;;19.19;63.64;97599.44;5028753;28;20045;-70
2022/09/14 10:10:18;;;;;;;4.68;3.58;;;;;;;19.15;63.65;97584.69;5010797;28;20030;-70
2022/09/14 10:12:49;;;;;;;6.43;4.03;;;;;;;19.15;63.77;97590.25;5010418;28;20037;-70
2022/09/14 10:15:19;;;;;;;5.30;3.85;;;;;;;19.17;63.89;97585.09;5026304;28;20687;-71
2022/09/14 10:18:03;;;;;;;;;;;;;;;19.18;64.05;97583.91;5026013;28;20445;-70
2022/09/14 10:20:28;;;;;;;6.28;3.95;;;;;;;19.19;64.26;97581.97;5002727;28;19913;-71
2022/09/14 10:22:54;;;;;;;7.72;4.47;;;;;;;19.19;64.17;97582.75;5015737;28;20064;-72
2022/09/14 10:25:24;;;;;;;6.07;4.05;;;;;;;19.16;64.53;97574.38;5005264;28;20037;-71
2022/09/14 10:27:55;;;;;;;5.38;4.20;;;;;;;19.16;65.12;97574.38;5004629;28;20360;-71
2022/09/14 10:30:41;;;;;;;4.57;4.05;;;;;;;19.04;65.02;97573.41;5005208;28;20040;-70
2022/09/14 10:33:13;;;;;;;4.90;4.20;;;;;;;19.02;65.21;97572.19;5004486;28;20022;-70
2022/09/14 10:36:04;;;;;;;7.35;4.32;;;;;;;19.02;66.06;97580.53;5016166;28;20394;-69
2022/09/14 10:38:32;;;;;;;4.93;4.40;;;;;;;18.96;65.72;97573.69;5012186;28;20057;-70
2022/09/14 10:41:31;;;;;;;5.53;4.20;;;;;;;18.96;66.08;97579.25;5009453;28;20041;-69
2022/09/14 10:44:06;;;;;;;5.90;4.10;;;;;;;18.94;66.25;97579.59;5013454;28;20022;-68
2022/09/14 10:47:33;;;;;;;6.80;4.97;;;;;;;18.82;66.34;97582.56;5010310;28;20394;-67
2022/09/14 10:50:46;;;;;;;6.13;4.65;;;;;;;18.74;66.42;97567.78;4925850;29;20051;-67
2022/09/14 10:53:18;;;;;;;5.97;4.80;;;;;;;18.70;66.77;97576.03;5011001;28;20391;-68
2022/09/14 10:56:00;;;;;;;7.30;4.82;;;;;;;18.64;66.82;97574.75;5009725;28;20535;-66
2022/09/14 10:58:53;;;;;;;7.60;5.10;;;;;;;18.63;67.05;97578.69;5023239;28;20505;-69
2022/09/14 11:01:24;;;;;;;6.15;5.10;;;;;;;18.58;67.81;97567.91;5010324;28;20092;-68
2022/09/14 11:04:11;;;;;;;6.35;5.28;;;;;;;18.49;67.48;97567.38;5014278;28;20068;-66
2022/09/14 11:06:49;;;;;;;6.78;5.50;;;;;;;18.39;67.76;97577.09;5024558;28;20077;-68
2022/09/14 11:09:35;;;;;;;8.20;5.22;;;;;;;18.30;68.68;97569.03;5031985;28;20107;-68
2022/09/14 11:12:28;;;;;;;6.28;5.22;;;;;;;18.15;68.16;97565.19;5031860;28;20372;-67
2022/09/14 11:15:17;;;;;;;7.05;5.03;;;;;;;18.10;69.20;97569.09;5032156;28;20029;-67
2022/09/14 11:17:51;;;;;;;7.97;6.60;;;;;;;18.02;68.64;97574.84;5023943;28;20034;-67
2022/09/14 11:20:41;;;;;;;6.90;5.03;;;;;;;17.97;69.54;97562.06;5016118;28;20418;-67
2022/09/14 11:23:31;;;;;;;6.55;5.35;;;;;;;17.92;69.21;97565.13;5012723;28;20029;-68
2022/09/14 11:26:02;;;;;;;6.18;5.10;;;;;;;17.90;69.18;97568.28;5012774;28;20029;-67
2022/09/14 11:28:38;;;;;;;6.63;5.70;;;;;;;17.88;69.80;97570.63;5012432;28;20064;-67
2022/09/14 11:31:28;;;;;;;6.63;5.22;;;;;;;17.83;69.83;97562.59;5030664;28;20022;-68
2022/09/14 11:34:02;;;;;;;7.50;5.57;;;;;;;17.85;70.22;97566.59;5031628;28;20500;-67
2022/09/14 11:36:35;;;;;;;7.72;5.15;;;;;;;17.85;70.73;97572.16;5032147;28;20029;-67
2022/09/14 11:39:09;;;;;;;7.63;5.22;;;;;;;17.91;70.45;97566.31;5032337;28;20029;-68
2022/09/14 11:42:04;;;;;;;7.97;5.35;;;;;;;17.89;70.56;97563.09;5017948;28;20038;-68
2022/09/14 11:44:41;;;;;;;5.60;4.82;;;;;;;17.90;70.66;97565.53;5011169;28;20096;-67
2022/09/14 11:47:14;;;;;;;7.25;5.25;;;;;;;17.92;71.24;97570.69;5012083;28;20026;-67
2022/09/14 11:50:10;;;;;;;6.38;4.95;;;;;;;17.85;70.78;97563.81;5010704;28;20030;-67
2022/09/14 11:52:35;;;;;;;7.18;4.88;;;;;;;17.85;71.11;97563.03;5011438;28;20052;-68
2022/09/14 11:55:07;;;;;;;6.40;4.68;;;;;;;17.82;71.10;97567.31;5012078;28;20672;-68